sensor_id;sensor_type;location;lat;lon;timestamp;P1;durP1;ratioP1;P2;durP2;ratioP2
51800;SDS011;37855;53.204;6.568;2023-09-19T00:00:57;8.93;;;1.95;;
51800;SDS011;37855;53.204;6.568;2023-09-19T00:03:23;6.90;;;2.10;;
51800;SDS011;37855;53.204;6.568;2023-09-19T00:05:53;9.82;;;1.98;;
51800;SDS011;37855;53.204;6.568;2023-09-19T00:10:56;9.20;;;2.40;;
51800;SDS011;37855;53.204;6.568;2023-09-19T00:16:11;12.63;;;2.33;;
51800;SDS011;37855;53.204;6.568;2023-09-19T00:18:40;11.30;;;2.10;;
51800;SDS011;37855;53.204;6.568;2023-09-19T00:24:28;14.13;;;2.50;;
51800;SDS011;37855;53.204;6.568;2023-09-19T00:27:06;9.70;;;2.00;;
51800;SDS011;37855;53.204;6.568;2023-09-19T00:29:33;12.68;;;1.95;;
51800;SDS011;37855;53.204;6.568;2023-09-19T00:32:04;11.13;;;2.38;;
51800;SDS011;37855;53.204;6.568;2023-09-19T01:15:06;10.65;;;2.20;;
51800;SDS011;37855;53.204;6.568;2023-09-19T01:33:13;7.78;;;2.00;;
51800;SDS011;37855;53.204;6.568;2023-09-19T01:35:45;8.90;;;1.92;;
51800;SDS011;37855;53.204;6.568;2023-09-19T01:38:38;9.05;;;1.73;;
51800;SDS011;37855;53.204;6.568;2023-09-19T01:41:17;11.37;;;1.93;;
51800;SDS011;37855;53.204;6.568;2023-09-19T01:43:54;15.40;;;2.05;;
51800;SDS011;37855;53.204;6.568;2023-09-19T02:00:22;9.32;;;1.60;;
51800;SDS011;37855;53.204;6.568;2023-09-19T02:05:29;9.10;;;1.85;;
51800;SDS011;37855;53.204;6.568;2023-09-19T02:21:36;9.43;;;2.05;;
51800;SDS011;37855;53.204;6.568;2023-09-19T02:24:05;13.27;;;1.88;;
51800;SDS011;37855;53.204;6.568;2023-09-19T02:30:14;11.40;;;2.25;;
51800;SDS011;37855;53.204;6.568;2023-09-19T02:35:57;10.50;;;2.15;;
51800;SDS011;37855;53.204;6.568;2023-09-19T02:38:24;11.05;;;2.10;;
51800;SDS011;37855;53.204;6.568;2023-09-19T02:40:51;13.70;;;1.90;;
51800;SDS011;37855;53.204;6.568;2023-09-19T02:43:20;12.23;;;2.00;;
51800;SDS011;37855;53.204;6.568;2023-09-19T02:45:46;9.38;;;2.10;;
51800;SDS011;37855;53.204;6.568;2023-09-19T02:48:17;7.70;;;1.98;;
51800;SDS011;37855;53.204;6.568;2023-09-19T02:50:43;7.07;;;1.90;;
51800;SDS011;37855;53.204;6.568;2023-09-19T02:53:09;8.73;;;2.13;;
51800;SDS011;37855;53.204;6.568;2023-09-19T02:55:38;10.57;;;1.98;;
51800;SDS011;37855;53.204;6.568;2023-09-19T03:09:05;7.00;;;1.80;;
51800;SDS011;37855;53.204;6.568;2023-09-19T03:18:34;9.02;;;1.80;;
51800;SDS011;37855;53.204;6.568;2023-09-19T03:21:00;8.77;;;1.80;;
51800;SDS011;37855;53.204;6.568;2023-09-19T03:23:26;8.40;;;1.90;;
51800;SDS011;37855;53.204;6.568;2023-09-19T03:25:53;9.52;;;1.88;;
51800;SDS011;37855;53.204;6.568;2023-09-19T03:28:22;10.63;;;1.92;;
51800;SDS011;37855;53.204;6.568;2023-09-19T03:31:01;8.10;;;2.00;;
51800;SDS011;37855;53.204;6.568;2023-09-19T03:33:31;9.98;;;1.90;;
51800;SDS011;37855;53.204;6.568;2023-09-19T03:35:58;9.40;;;1.90;;
51800;SDS011;37855;53.204;6.568;2023-09-19T03:38:24;10.18;;;2.25;;
51800;SDS011;37855;53.204;6.568;2023-09-19T03:40:50;9.87;;;2.10;;
51800;SDS011;37855;53.204;6.568;2023-09-19T03:43:19;8.10;;;2.05;;
51800;SDS011;37855;53.204;6.568;2023-09-19T03:45:44;7.15;;;1.80;;
51800;SDS011;37855;53.204;6.568;2023-09-19T03:48:14;9.60;;;1.70;;
51800;SDS011;37855;53.204;6.568;2023-09-19T03:50:40;6.30;;;1.50;;
51800;SDS011;37855;53.204;6.568;2023-09-19T03:53:09;9.23;;;1.80;;
51800;SDS011;37855;53.204;6.568;2023-09-19T03:55:34;11.47;;;2.33;;
51800;SDS011;37855;53.204;6.568;2023-09-19T03:58:02;9.35;;;1.90;;
51800;SDS011;37855;53.204;6.568;2023-09-19T04:00:29;9.48;;;2.33;;
51800;SDS011;37855;53.204;6.568;2023-09-19T04:02:55;6.20;;;1.90;;
51800;SDS011;37855;53.204;6.568;2023-09-19T04:05:22;9.77;;;2.00;;
51800;SDS011;37855;53.204;6.568;2023-09-19T04:07:48;8.80;;;1.98;;
51800;SDS011;37855;53.204;6.568;2023-09-19T04:10:15;8.63;;;2.08;;
51800;SDS011;37855;53.204;6.568;2023-09-19T04:12:40;10.80;;;2.10;;
51800;SDS011;37855;53.204;6.568;2023-09-19T04:15:15;9.65;;;1.95;;
51800;SDS011;37855;53.204;6.568;2023-09-19T04:17:41;8.38;;;2.30;;
51800;SDS011;37855;53.204;6.568;2023-09-19T04:20:07;6.77;;;1.80;;
51800;SDS011;37855;53.204;6.568;2023-09-19T04:22:37;10.85;;;2.05;;
51800;SDS011;37855;53.204;6.568;2023-09-19T04:25:04;11.75;;;2.20;;
51800;SDS011;37855;53.204;6.568;2023-09-19T04:42:57;9.68;;;1.70;;
51800;SDS011;37855;53.204;6.568;2023-09-19T04:45:23;9.23;;;2.10;;
51800;SDS011;37855;53.204;6.568;2023-09-19T04:47:49;8.90;;;1.90;;
51800;SDS011;37855;53.204;6.568;2023-09-19T04:50:15;8.60;;;2.15;;
51800;SDS011;37855;53.204;6.568;2023-09-19T04:52:42;7.28;;;1.80;;
51800;SDS011;37855;53.204;6.568;2023-09-19T04:55:15;8.65;;;2.10;;
51800;SDS011;37855;53.204;6.568;2023-09-19T04:57:45;9.00;;;2.40;;
51800;SDS011;37855;53.204;6.568;2023-09-19T05:00:21;6.80;;;1.80;;
51800;SDS011;37855;53.204;6.568;2023-09-19T05:02:52;11.07;;;2.10;;
51800;SDS011;37855;53.204;6.568;2023-09-19T05:05:22;8.98;;;1.70;;
51800;SDS011;37855;53.204;6.568;2023-09-19T05:07:49;9.38;;;1.80;;
51800;SDS011;37855;53.204;6.568;2023-09-19T05:10:16;10.73;;;2.17;;
51800;SDS011;37855;53.204;6.568;2023-09-19T05:12:44;7.80;;;2.27;;
51800;SDS011;37855;53.204;6.568;2023-09-19T05:15:13;10.05;;;2.22;;
51800;SDS011;37855;53.204;6.568;2023-09-19T05:17:47;7.88;;;2.10;;
51800;SDS011;37855;53.204;6.568;2023-09-19T05:20:14;8.75;;;2.15;;
51800;SDS011;37855;53.204;6.568;2023-09-19T05:22:43;10.52;;;2.00;;
51800;SDS011;37855;53.204;6.568;2023-09-19T05:25:11;9.80;;;2.27;;
51800;SDS011;37855;53.204;6.568;2023-09-19T05:27:41;7.00;;;1.75;;
51800;SDS011;37855;53.204;6.568;2023-09-19T05:30:07;8.65;;;1.95;;
51800;SDS011;37855;53.204;6.568;2023-09-19T05:32:33;11.40;;;2.25;;
51800;SDS011;37855;53.204;6.568;2023-09-19T05:34:59;8.03;;;2.27;;
51800;SDS011;37855;53.204;6.568;2023-09-19T05:37:25;10.02;;;2.30;;
51800;SDS011;37855;53.204;6.568;2023-09-19T05:39:51;11.33;;;2.30;;
51800;SDS011;37855;53.204;6.568;2023-09-19T05:42:18;11.55;;;2.20;;
51800;SDS011;37855;53.204;6.568;2023-09-19T05:44:44;8.05;;;2.00;;
51800;SDS011;37855;53.204;6.568;2023-09-19T05:47:10;10.43;;;2.37;;
51800;SDS011;37855;53.204;6.568;2023-09-19T05:49:35;11.38;;;2.30;;
51800;SDS011;37855;53.204;6.568;2023-09-19T05:52:07;11.10;;;2.23;;
51800;SDS011;37855;53.204;6.568;2023-09-19T05:54:33;11.90;;;2.25;;
51800;SDS011;37855;53.204;6.568;2023-09-19T05:57:02;10.63;;;2.17;;
51800;SDS011;37855;53.204;6.568;2023-09-19T05:59:28;11.65;;;2.38;;
51800;SDS011;37855;53.204;6.568;2023-09-19T06:01:55;8.93;;;1.90;;
51800;SDS011;37855;53.204;6.568;2023-09-19T06:04:20;11.60;;;2.33;;
51800;SDS011;37855;53.204;6.568;2023-09-19T06:06:46;9.38;;;2.17;;
51800;SDS011;37855;53.204;6.568;2023-09-19T06:09:13;12.43;;;2.28;;
51800;SDS011;37855;53.204;6.568;2023-09-19T06:11:41;13.67;;;2.30;;
51800;SDS011;37855;53.204;6.568;2023-09-19T06:14:07;9.30;;;2.45;;
51800;SDS011;37855;53.204;6.568;2023-09-19T06:16:33;9.65;;;2.28;;
51800;SDS011;37855;53.204;6.568;2023-09-19T06:18:58;7.67;;;2.00;;
51800;SDS011;37855;53.204;6.568;2023-09-19T06:21:27;11.35;;;2.00;;
51800;SDS011;37855;53.204;6.568;2023-09-19T06:23:53;9.13;;;2.05;;
51800;SDS011;37855;53.204;6.568;2023-09-19T06:26:19;10.47;;;2.07;;
51800;SDS011;37855;53.204;6.568;2023-09-19T06:28:44;10.07;;;2.00;;
51800;SDS011;37855;53.204;6.568;2023-09-19T06:31:10;8.17;;;1.87;;
51800;SDS011;37855;53.204;6.568;2023-09-19T06:33:37;8.88;;;2.17;;
51800;SDS011;37855;53.204;6.568;2023-09-19T06:36:04;9.75;;;2.25;;
51800;SDS011;37855;53.204;6.568;2023-09-19T06:38:30;14.23;;;2.30;;
51800;SDS011;37855;53.204;6.568;2023-09-19T06:40:59;11.50;;;2.15;;
51800;SDS011;37855;53.204;6.568;2023-09-19T06:43:26;6.30;;;1.83;;
51800;SDS011;37855;53.204;6.568;2023-09-19T06:45:53;13.02;;;2.20;;
51800;SDS011;37855;53.204;6.568;2023-09-19T06:48:19;13.40;;;2.42;;
51800;SDS011;37855;53.204;6.568;2023-09-19T06:50:46;14.13;;;2.58;;
51800;SDS011;37855;53.204;6.568;2023-09-19T06:53:13;10.75;;;1.98;;
51800;SDS011;37855;53.204;6.568;2023-09-19T06:55:39;10.70;;;2.53;;
51800;SDS011;37855;53.204;6.568;2023-09-19T06:58:05;11.68;;;2.25;;
51800;SDS011;37855;53.204;6.568;2023-09-19T07:00:31;12.15;;;2.45;;
51800;SDS011;37855;53.204;6.568;2023-09-19T07:03:02;9.25;;;2.22;;
51800;SDS011;37855;53.204;6.568;2023-09-19T07:05:29;14.50;;;2.47;;
51800;SDS011;37855;53.204;6.568;2023-09-19T07:07:57;11.03;;;2.10;;
51800;SDS011;37855;53.204;6.568;2023-09-19T07:10:24;13.80;;;2.22;;
51800;SDS011;37855;53.204;6.568;2023-09-19T07:15:23;10.10;;;2.20;;
51800;SDS011;37855;53.204;6.568;2023-09-19T07:17:53;12.25;;;2.15;;
51800;SDS011;37855;53.204;6.568;2023-09-19T07:20:21;12.30;;;2.10;;
51800;SDS011;37855;53.204;6.568;2023-09-19T07:22:47;9.55;;;2.13;;
51800;SDS011;37855;53.204;6.568;2023-09-19T07:25:15;11.32;;;2.08;;
51800;SDS011;37855;53.204;6.568;2023-09-19T07:27:41;13.52;;;2.28;;
51800;SDS011;37855;53.204;6.568;2023-09-19T07:30:08;14.20;;;2.50;;
51800;SDS011;37855;53.204;6.568;2023-09-19T07:32:34;10.90;;;2.03;;
51800;SDS011;37855;53.204;6.568;2023-09-19T07:35:03;9.32;;;1.70;;
51800;SDS011;37855;53.204;6.568;2023-09-19T07:37:30;13.43;;;2.58;;
51800;SDS011;37855;53.204;6.568;2023-09-19T07:40:02;8.82;;;2.05;;
51800;SDS011;37855;53.204;6.568;2023-09-19T07:42:35;12.15;;;2.40;;
51800;SDS011;37855;53.204;6.568;2023-09-19T07:45:06;10.40;;;2.40;;
51800;SDS011;37855;53.204;6.568;2023-09-19T07:47:33;10.30;;;2.30;;
51800;SDS011;37855;53.204;6.568;2023-09-19T07:49:59;9.35;;;2.10;;
51800;SDS011;37855;53.204;6.568;2023-09-19T07:52:28;11.43;;;2.55;;
51800;SDS011;37855;53.204;6.568;2023-09-19T07:54:54;12.73;;;2.50;;
51800;SDS011;37855;53.204;6.568;2023-09-19T07:57:22;15.10;;;2.37;;
51800;SDS011;37855;53.204;6.568;2023-09-19T07:59:48;12.52;;;2.45;;
51800;SDS011;37855;53.204;6.568;2023-09-19T08:02:14;14.57;;;3.13;;
51800;SDS011;37855;53.204;6.568;2023-09-19T08:04:43;13.03;;;2.30;;
51800;SDS011;37855;53.204;6.568;2023-09-19T08:07:11;13.50;;;2.38;;
51800;SDS011;37855;53.204;6.568;2023-09-19T08:09:41;9.77;;;2.30;;
51800;SDS011;37855;53.204;6.568;2023-09-19T08:12:11;11.75;;;2.25;;
51800;SDS011;37855;53.204;6.568;2023-09-19T08:14:37;10.57;;;2.27;;
51800;SDS011;37855;53.204;6.568;2023-09-19T08:17:03;11.15;;;2.22;;
51800;SDS011;37855;53.204;6.568;2023-09-19T08:19:33;8.90;;;2.15;;
51800;SDS011;37855;53.204;6.568;2023-09-19T08:21:59;10.88;;;2.10;;
51800;SDS011;37855;53.204;6.568;2023-09-19T08:24:30;13.50;;;2.63;;
51800;SDS011;37855;53.204;6.568;2023-09-19T08:26:56;11.33;;;2.20;;
51800;SDS011;37855;53.204;6.568;2023-09-19T08:29:23;9.45;;;2.30;;
51800;SDS011;37855;53.204;6.568;2023-09-19T08:31:56;12.90;;;2.55;;
51800;SDS011;37855;53.204;6.568;2023-09-19T08:34:25;12.55;;;2.17;;
51800;SDS011;37855;53.204;6.568;2023-09-19T08:36:52;11.90;;;2.50;;
51800;SDS011;37855;53.204;6.568;2023-09-19T08:39:21;13.40;;;2.30;;
51800;SDS011;37855;53.204;6.568;2023-09-19T08:41:47;10.18;;;2.53;;
51800;SDS011;37855;53.204;6.568;2023-09-19T08:44:13;11.95;;;2.17;;
51800;SDS011;37855;53.204;6.568;2023-09-19T08:46:41;11.43;;;2.30;;
51800;SDS011;37855;53.204;6.568;2023-09-19T08:49:16;10.10;;;2.20;;
51800;SDS011;37855;53.204;6.568;2023-09-19T08:52:22;9.77;;;2.20;;
51800;SDS011;37855;53.204;6.568;2023-09-19T08:54:52;11.43;;;2.50;;
51800;SDS011;37855;53.204;6.568;2023-09-19T08:57:24;14.00;;;2.67;;
51800;SDS011;37855;53.204;6.568;2023-09-19T08:59:54;11.53;;;2.53;;
51800;SDS011;37855;53.204;6.568;2023-09-19T09:02:22;14.52;;;2.35;;
51800;SDS011;37855;53.204;6.568;2023-09-19T09:04:48;15.55;;;2.58;;
51800;SDS011;37855;53.204;6.568;2023-09-19T09:07:15;12.23;;;2.22;;
51800;SDS011;37855;53.204;6.568;2023-09-19T09:09:44;14.93;;;3.00;;
51800;SDS011;37855;53.204;6.568;2023-09-19T09:12:13;10.27;;;2.57;;
51800;SDS011;37855;53.204;6.568;2023-09-19T09:14:40;11.15;;;2.38;;
51800;SDS011;37855;53.204;6.568;2023-09-19T09:17:10;14.40;;;3.70;;
51800;SDS011;37855;53.204;6.568;2023-09-19T09:19:40;11.15;;;2.90;;
51800;SDS011;37855;53.204;6.568;2023-09-19T09:22:09;16.48;;;3.10;;
51800;SDS011;37855;53.204;6.568;2023-09-19T09:24:36;11.17;;;2.90;;
51800;SDS011;37855;53.204;6.568;2023-09-19T09:27:05;12.88;;;2.70;;
51800;SDS011;37855;53.204;6.568;2023-09-19T09:32:16;12.00;;;3.47;;
51800;SDS011;37855;53.204;6.568;2023-09-19T09:34:43;16.15;;;3.65;;
51800;SDS011;37855;53.204;6.568;2023-09-19T09:37:13;18.07;;;3.60;;
51800;SDS011;37855;53.204;6.568;2023-09-19T09:39:48;13.00;;;3.30;;
51800;SDS011;37855;53.204;6.568;2023-09-19T09:42:35;14.05;;;3.33;;
51800;SDS011;37855;53.204;6.568;2023-09-19T09:45:25;14.98;;;3.17;;
51800;SDS011;37855;53.204;6.568;2023-09-19T09:47:59;16.35;;;3.10;;
51800;SDS011;37855;53.204;6.568;2023-09-19T09:50:35;12.70;;;2.63;;
51800;SDS011;37855;53.204;6.568;2023-09-19T09:53:24;14.80;;;2.92;;
51800;SDS011;37855;53.204;6.568;2023-09-19T09:56:02;15.70;;;2.60;;
51800;SDS011;37855;53.204;6.568;2023-09-19T09:58:38;13.88;;;2.90;;
51800;SDS011;37855;53.204;6.568;2023-09-19T10:01:17;15.57;;;2.50;;
51800;SDS011;37855;53.204;6.568;2023-09-19T10:03:43;12.47;;;2.57;;
51800;SDS011;37855;53.204;6.568;2023-09-19T10:06:11;15.65;;;2.65;;
51800;SDS011;37855;53.204;6.568;2023-09-19T10:09:07;12.85;;;3.00;;
51800;SDS011;37855;53.204;6.568;2023-09-19T10:11:44;14.88;;;3.10;;
51800;SDS011;37855;53.204;6.568;2023-09-19T10:14:12;12.60;;;2.40;;
51800;SDS011;37855;53.204;6.568;2023-09-19T10:16:41;16.27;;;2.75;;
51800;SDS011;37855;53.204;6.568;2023-09-19T10:19:14;11.98;;;2.70;;
51800;SDS011;37855;53.204;6.568;2023-09-19T10:21:49;18.27;;;2.50;;
51800;SDS011;37855;53.204;6.568;2023-09-19T10:24:18;15.10;;;2.67;;
51800;SDS011;37855;53.204;6.568;2023-09-19T10:26:45;18.40;;;2.80;;
51800;SDS011;37855;53.204;6.568;2023-09-19T10:29:14;11.10;;;2.88;;
51800;SDS011;37855;53.204;6.568;2023-09-19T10:31:42;14.85;;;2.67;;
51800;SDS011;37855;53.204;6.568;2023-09-19T10:34:14;14.90;;;2.90;;
51800;SDS011;37855;53.204;6.568;2023-09-19T10:36:40;15.75;;;2.88;;
51800;SDS011;37855;53.204;6.568;2023-09-19T10:39:10;15.20;;;2.40;;
51800;SDS011;37855;53.204;6.568;2023-09-19T10:41:38;34.95;;;3.83;;
51800;SDS011;37855;53.204;6.568;2023-09-19T10:44:05;17.58;;;2.92;;
51800;SDS011;37855;53.204;6.568;2023-09-19T10:46:34;15.48;;;2.90;;
51800;SDS011;37855;53.204;6.568;2023-09-19T10:49:02;16.10;;;2.60;;
51800;SDS011;37855;53.204;6.568;2023-09-19T10:51:31;12.70;;;3.00;;
51800;SDS011;37855;53.204;6.568;2023-09-19T10:54:11;18.25;;;2.92;;
51800;SDS011;37855;53.204;6.568;2023-09-19T10:56:50;15.18;;;2.90;;
51800;SDS011;37855;53.204;6.568;2023-09-19T10:59:17;12.40;;;2.67;;
51800;SDS011;37855;53.204;6.568;2023-09-19T11:01:49;11.82;;;2.95;;
51800;SDS011;37855;53.204;6.568;2023-09-19T11:09:44;23.83;;;3.67;;
51800;SDS011;37855;53.204;6.568;2023-09-19T11:14:55;10.30;;;3.05;;
51800;SDS011;37855;53.204;6.568;2023-09-19T11:23:22;19.92;;;2.90;;
51800;SDS011;37855;53.204;6.568;2023-09-19T11:25:42;23.33;;;2.70;;
51800;SDS011;37855;53.204;6.568;2023-09-19T11:28:27;10.13;;;2.25;;
51800;SDS011;37855;53.204;6.568;2023-09-19T11:30:54;15.30;;;2.50;;
51800;SDS011;37855;53.204;6.568;2023-09-19T11:33:27;15.63;;;2.97;;
51800;SDS011;37855;53.204;6.568;2023-09-19T11:43:54;12.03;;;2.57;;
51800;SDS011;37855;53.204;6.568;2023-09-19T11:49:18;15.48;;;2.28;;
51800;SDS011;37855;53.204;6.568;2023-09-19T11:51:46;16.40;;;2.88;;
51800;SDS011;37855;53.204;6.568;2023-09-19T11:54:15;14.55;;;2.35;;
51800;SDS011;37855;53.204;6.568;2023-09-19T11:56:48;12.43;;;2.77;;
51800;SDS011;37855;53.204;6.568;2023-09-19T11:59:38;15.70;;;2.70;;
51800;SDS011;37855;53.204;6.568;2023-09-19T12:02:04;17.10;;;2.60;;
51800;SDS011;37855;53.204;6.568;2023-09-19T12:04:40;13.48;;;2.90;;
51800;SDS011;37855;53.204;6.568;2023-09-19T12:07:09;12.60;;;2.30;;
51800;SDS011;37855;53.204;6.568;2023-09-19T12:09:45;15.93;;;2.40;;
51800;SDS011;37855;53.204;6.568;2023-09-19T12:12:25;17.95;;;2.80;;
51800;SDS011;37855;53.204;6.568;2023-09-19T12:15:00;17.63;;;3.05;;
51800;SDS011;37855;53.204;6.568;2023-09-19T12:17:38;10.73;;;2.53;;
51800;SDS011;37855;53.204;6.568;2023-09-19T12:20:07;14.57;;;2.85;;
51800;SDS011;37855;53.204;6.568;2023-09-19T12:25:08;13.18;;;2.60;;
51800;SDS011;37855;53.204;6.568;2023-09-19T12:27:48;11.85;;;2.20;;
51800;SDS011;37855;53.204;6.568;2023-09-19T12:30:18;12.13;;;2.60;;
51800;SDS011;37855;53.204;6.568;2023-09-19T12:32:45;12.88;;;2.42;;
51800;SDS011;37855;53.204;6.568;2023-09-19T12:35:32;13.83;;;2.63;;
51800;SDS011;37855;53.204;6.568;2023-09-19T12:38:01;11.90;;;2.05;;
51800;SDS011;37855;53.204;6.568;2023-09-19T12:40:31;14.68;;;2.83;;
51800;SDS011;37855;53.204;6.568;2023-09-19T12:42:58;18.85;;;2.42;;
51800;SDS011;37855;53.204;6.568;2023-09-19T12:45:30;15.23;;;2.35;;
51800;SDS011;37855;53.204;6.568;2023-09-19T12:53:44;14.20;;;2.38;;
51800;SDS011;37855;53.204;6.568;2023-09-19T12:56:16;12.23;;;2.53;;
51800;SDS011;37855;53.204;6.568;2023-09-19T12:58:52;12.10;;;2.45;;
51800;SDS011;37855;53.204;6.568;2023-09-19T13:01:24;9.03;;;1.90;;
51800;SDS011;37855;53.204;6.568;2023-09-19T13:06:43;11.98;;;2.22;;
51800;SDS011;37855;53.204;6.568;2023-09-19T13:09:11;11.30;;;2.20;;
51800;SDS011;37855;53.204;6.568;2023-09-19T13:11:37;10.35;;;2.10;;
51800;SDS011;37855;53.204;6.568;2023-09-19T13:16:54;11.70;;;2.03;;
51800;SDS011;37855;53.204;6.568;2023-09-19T13:19:44;10.93;;;2.08;;
51800;SDS011;37855;53.204;6.568;2023-09-19T13:25:07;11.93;;;2.22;;
51800;SDS011;37855;53.204;6.568;2023-09-19T13:27:42;10.33;;;2.40;;
51800;SDS011;37855;53.204;6.568;2023-09-19T13:30:13;13.60;;;2.20;;
51800;SDS011;37855;53.204;6.568;2023-09-19T13:32:43;10.15;;;2.22;;
51800;SDS011;37855;53.204;6.568;2023-09-19T13:35:09;11.48;;;2.28;;
51800;SDS011;37855;53.204;6.568;2023-09-19T13:37:35;10.13;;;2.13;;
51800;SDS011;37855;53.204;6.568;2023-09-19T13:40:09;12.77;;;1.90;;
51800;SDS011;37855;53.204;6.568;2023-09-19T13:42:36;9.52;;;2.17;;
51800;SDS011;37855;53.204;6.568;2023-09-19T13:45:02;10.18;;;1.95;;
51800;SDS011;37855;53.204;6.568;2023-09-19T13:47:35;14.80;;;1.85;;
51800;SDS011;37855;53.204;6.568;2023-09-19T13:50:03;13.57;;;2.00;;
51800;SDS011;37855;53.204;6.568;2023-09-19T13:52:33;10.00;;;2.03;;
51800;SDS011;37855;53.204;6.568;2023-09-19T13:54:58;11.48;;;2.40;;
51800;SDS011;37855;53.204;6.568;2023-09-19T13:57:25;8.93;;;1.90;;
51800;SDS011;37855;53.204;6.568;2023-09-19T13:59:51;13.55;;;2.25;;
51800;SDS011;37855;53.204;6.568;2023-09-19T14:02:19;13.03;;;2.10;;
51800;SDS011;37855;53.204;6.568;2023-09-19T14:04:51;12.38;;;2.33;;
51800;SDS011;37855;53.204;6.568;2023-09-19T14:07:17;7.80;;;1.90;;
51800;SDS011;37855;53.204;6.568;2023-09-19T14:09:45;7.95;;;1.90;;
51800;SDS011;37855;53.204;6.568;2023-09-19T14:12:12;7.68;;;1.70;;
51800;SDS011;37855;53.204;6.568;2023-09-19T14:14:39;9.17;;;2.00;;
51800;SDS011;37855;53.204;6.568;2023-09-19T14:17:05;11.32;;;2.28;;
51800;SDS011;37855;53.204;6.568;2023-09-19T14:19:32;10.52;;;2.17;;
51800;SDS011;37855;53.204;6.568;2023-09-19T14:21:58;9.70;;;1.80;;
51800;SDS011;37855;53.204;6.568;2023-09-19T14:24:25;6.88;;;1.40;;
51800;SDS011;37855;53.204;6.568;2023-09-19T14:26:51;9.43;;;1.70;;
51800;SDS011;37855;53.204;6.568;2023-09-19T14:29:16;13.85;;;1.90;;
51800;SDS011;37855;53.204;6.568;2023-09-19T14:31:42;9.87;;;1.60;;
51800;SDS011;37855;53.204;6.568;2023-09-19T14:34:08;9.18;;;1.80;;
51800;SDS011;37855;53.204;6.568;2023-09-19T14:36:35;10.82;;;1.98;;
51800;SDS011;37855;53.204;6.568;2023-09-19T14:39:03;16.00;;;1.98;;
51800;SDS011;37855;53.204;6.568;2023-09-19T14:41:29;9.27;;;1.80;;
51800;SDS011;37855;53.204;6.568;2023-09-19T14:43:56;8.52;;;2.55;;
51800;SDS011;37855;53.204;6.568;2023-09-19T14:46:22;7.10;;;1.67;;
51800;SDS011;37855;53.204;6.568;2023-09-19T14:48:49;8.93;;;1.80;;
51800;SDS011;37855;53.204;6.568;2023-09-19T14:51:18;9.00;;;1.73;;
51800;SDS011;37855;53.204;6.568;2023-09-19T14:53:45;9.15;;;2.03;;
51800;SDS011;37855;53.204;6.568;2023-09-19T14:56:12;8.25;;;1.98;;
51800;SDS011;37855;53.204;6.568;2023-09-19T14:58:41;10.00;;;1.77;;
51800;SDS011;37855;53.204;6.568;2023-09-19T15:01:07;9.40;;;2.13;;
51800;SDS011;37855;53.204;6.568;2023-09-19T15:03:52;8.13;;;2.10;;
51800;SDS011;37855;53.204;6.568;2023-09-19T15:06:19;6.55;;;1.50;;
51800;SDS011;37855;53.204;6.568;2023-09-19T15:08:50;12.43;;;2.03;;
51800;SDS011;37855;53.204;6.568;2023-09-19T15:11:17;7.13;;;1.80;;
51800;SDS011;37855;53.204;6.568;2023-09-19T15:13:43;11.02;;;1.75;;
51800;SDS011;37855;53.204;6.568;2023-09-19T15:16:09;7.47;;;1.80;;
51800;SDS011;37855;53.204;6.568;2023-09-19T15:18:36;6.18;;;1.52;;
51800;SDS011;37855;53.204;6.568;2023-09-19T15:21:06;8.45;;;1.80;;
51800;SDS011;37855;53.204;6.568;2023-09-19T15:23:33;9.37;;;2.10;;
51800;SDS011;37855;53.204;6.568;2023-09-19T15:26:00;9.38;;;1.80;;
51800;SDS011;37855;53.204;6.568;2023-09-19T15:28:26;7.68;;;1.83;;
51800;SDS011;37855;53.204;6.568;2023-09-19T15:30:57;7.72;;;1.80;;
51800;SDS011;37855;53.204;6.568;2023-09-19T15:33:24;4.28;;;1.50;;
51800;SDS011;37855;53.204;6.568;2023-09-19T15:35:52;7.43;;;1.70;;
51800;SDS011;37855;53.204;6.568;2023-09-19T15:38:18;7.32;;;2.17;;
51800;SDS011;37855;53.204;6.568;2023-09-19T15:40:47;5.35;;;1.65;;
51800;SDS011;37855;53.204;6.568;2023-09-19T15:43:13;5.90;;;2.27;;
51800;SDS011;37855;53.204;6.568;2023-09-19T15:45:39;7.78;;;1.73;;
51800;SDS011;37855;53.204;6.568;2023-09-19T15:48:13;6.25;;;1.88;;
51800;SDS011;37855;53.204;6.568;2023-09-19T15:50:39;7.47;;;1.95;;
51800;SDS011;37855;53.204;6.568;2023-09-19T15:53:07;8.27;;;2.13;;
51800;SDS011;37855;53.204;6.568;2023-09-19T15:55:40;7.40;;;1.98;;
51800;SDS011;37855;53.204;6.568;2023-09-19T15:58:06;9.85;;;2.08;;
51800;SDS011;37855;53.204;6.568;2023-09-19T16:00:34;6.97;;;1.92;;
51800;SDS011;37855;53.204;6.568;2023-09-19T16:03:00;5.78;;;1.70;;
51800;SDS011;37855;53.204;6.568;2023-09-19T16:05:26;8.37;;;1.67;;
51800;SDS011;37855;53.204;6.568;2023-09-19T16:07:53;7.28;;;1.80;;
51800;SDS011;37855;53.204;6.568;2023-09-19T16:10:18;7.55;;;1.75;;
51800;SDS011;37855;53.204;6.568;2023-09-19T16:12:44;7.33;;;2.17;;
51800;SDS011;37855;53.204;6.568;2023-09-19T16:15:10;9.65;;;1.95;;
51800;SDS011;37855;53.204;6.568;2023-09-19T16:17:36;10.60;;;2.15;;
51800;SDS011;37855;53.204;6.568;2023-09-19T16:20:02;8.13;;;1.70;;
51800;SDS011;37855;53.204;6.568;2023-09-19T16:22:28;10.48;;;1.90;;
51800;SDS011;37855;53.204;6.568;2023-09-19T16:24:54;7.85;;;2.13;;
51800;SDS011;37855;53.204;6.568;2023-09-19T16:27:19;9.27;;;2.10;;
51800;SDS011;37855;53.204;6.568;2023-09-19T16:29:47;5.70;;;1.90;;
51800;SDS011;37855;53.204;6.568;2023-09-19T16:32:14;8.30;;;2.10;;
51800;SDS011;37855;53.204;6.568;2023-09-19T16:34:40;6.83;;;2.00;;
51800;SDS011;37855;53.204;6.568;2023-09-19T16:37:06;11.68;;;2.10;;
51800;SDS011;37855;53.204;6.568;2023-09-19T16:39:32;7.65;;;1.92;;
51800;SDS011;37855;53.204;6.568;2023-09-19T16:41:58;8.00;;;2.10;;
51800;SDS011;37855;53.204;6.568;2023-09-19T16:44:24;6.70;;;2.00;;
51800;SDS011;37855;53.204;6.568;2023-09-19T16:46:50;7.57;;;2.40;;
51800;SDS011;37855;53.204;6.568;2023-09-19T16:49:16;7.07;;;2.23;;
51800;SDS011;37855;53.204;6.568;2023-09-19T16:51:41;8.30;;;2.70;;
51800;SDS011;37855;53.204;6.568;2023-09-19T16:54:08;8.67;;;2.17;;
51800;SDS011;37855;53.204;6.568;2023-09-19T16:56:34;6.03;;;1.98;;
51800;SDS011;37855;53.204;6.568;2023-09-19T16:59:02;8.15;;;2.17;;
51800;SDS011;37855;53.204;6.568;2023-09-19T17:01:30;5.13;;;2.20;;
51800;SDS011;37855;53.204;6.568;2023-09-19T17:03:58;6.70;;;2.13;;
51800;SDS011;37855;53.204;6.568;2023-09-19T17:06:24;7.25;;;2.42;;
51800;SDS011;37855;53.204;6.568;2023-09-19T17:08:50;8.13;;;2.22;;
51800;SDS011;37855;53.204;6.568;2023-09-19T17:11:17;7.57;;;2.30;;
51800;SDS011;37855;53.204;6.568;2023-09-19T17:13:46;8.68;;;2.60;;
51800;SDS011;37855;53.204;6.568;2023-09-19T17:16:15;7.63;;;1.98;;
51800;SDS011;37855;53.204;6.568;2023-09-19T17:18:49;8.90;;;2.50;;
51800;SDS011;37855;53.204;6.568;2023-09-19T17:21:19;10.02;;;2.72;;
51800;SDS011;37855;53.204;6.568;2023-09-19T17:23:44;6.93;;;2.10;;
51800;SDS011;37855;53.204;6.568;2023-09-19T17:26:13;7.65;;;2.60;;
51800;SDS011;37855;53.204;6.568;2023-09-19T17:28:40;7.68;;;2.35;;
51800;SDS011;37855;53.204;6.568;2023-09-19T17:31:09;8.07;;;2.60;;
51800;SDS011;37855;53.204;6.568;2023-09-19T17:33:37;7.85;;;2.22;;
51800;SDS011;37855;53.204;6.568;2023-09-19T17:36:05;8.80;;;2.80;;
51800;SDS011;37855;53.204;6.568;2023-09-19T17:38:43;8.38;;;2.30;;
51800;SDS011;37855;53.204;6.568;2023-09-19T17:41:10;9.52;;;2.60;;
51800;SDS011;37855;53.204;6.568;2023-09-19T17:43:40;8.93;;;2.40;;
51800;SDS011;37855;53.204;6.568;2023-09-19T17:46:09;12.57;;;2.75;;
51800;SDS011;37855;53.204;6.568;2023-09-19T17:48:37;9.35;;;2.78;;
51800;SDS011;37855;53.204;6.568;2023-09-19T17:51:06;9.23;;;2.50;;
51800;SDS011;37855;53.204;6.568;2023-09-19T17:53:32;9.93;;;2.38;;